createdAt,value
2023-03-15T00:01:08.342Z,1.48
2023-03-15T00:03:37.603Z,1.43
2023-03-15T00:06:07.684Z,1.51
2023-03-15T00:08:35.678Z,1.44
2023-03-15T00:11:03.775Z,1.57
2023-03-15T00:13:32.278Z,1.60
2023-03-15T00:16:02.966Z,1.46
2023-03-15T00:18:31.291Z,1.69
2023-03-15T00:20:59.599Z,1.69
2023-03-15T00:23:31.630Z,1.64
2023-03-15T00:25:59.615Z,1.54
2023-03-15T00:28:27.627Z,1.34
2023-03-15T00:31:04.973Z,1.53
2023-03-15T00:33:34.999Z,1.80
2023-03-15T00:36:05.329Z,1.50
2023-03-15T00:38:35.027Z,1.61
2023-03-15T00:41:06.771Z,1.72
2023-03-15T00:43:34.766Z,1.59
2023-03-15T00:46:03.253Z,1.56
2023-03-15T00:48:31.235Z,1.79
2023-03-15T00:51:07.053Z,1.66
2023-03-15T00:53:36.905Z,1.64
2023-03-15T00:56:06.804Z,1.59
2023-03-15T00:58:34.798Z,1.42
2023-03-15T01:01:06.958Z,1.61
2023-03-15T01:03:36.853Z,1.50
2023-03-15T01:06:09.096Z,1.58
2023-03-15T01:08:38.434Z,1.23
2023-03-15T01:11:07.407Z,1.20
2023-03-15T01:13:35.431Z,1.18
2023-03-15T01:16:03.923Z,1.50
2023-03-15T01:18:32.161Z,1.50
2023-03-15T01:21:00.408Z,1.45
2023-03-15T01:23:28.349Z,1.43
2023-03-15T01:26:01.171Z,1.41
2023-03-15T01:28:29.194Z,1.42
2023-03-15T01:30:58.858Z,1.65
2023-03-15T01:33:27.673Z,1.55
2023-03-15T01:36:00.390Z,1.64
2023-03-15T01:38:28.499Z,1.61
2023-03-15T01:40:57.792Z,1.71
2023-03-15T01:43:26.812Z,1.61
2023-03-15T01:46:07.558Z,1.65
2023-03-15T01:48:38.710Z,1.54
2023-03-15T01:51:11.353Z,1.65
2023-03-15T01:53:40.285Z,1.57
2023-03-15T01:56:09.832Z,1.50
2023-03-15T01:58:38.134Z,1.49
2023-03-15T02:01:06.312Z,1.63
2023-03-15T02:03:36.668Z,1.67
2023-03-15T02:06:08.467Z,1.85
2023-03-15T02:08:40.505Z,1.78
2023-03-15T02:11:09.842Z,1.60
2023-03-15T02:13:37.772Z,1.74
2023-03-15T02:16:07.048Z,1.55
2023-03-15T02:18:36.770Z,1.48
2023-03-15T02:21:12.455Z,1.71
2023-03-15T02:23:41.553Z,1.71
2023-03-15T02:26:18.370Z,1.70
2023-03-15T02:28:47.877Z,1.71
2023-03-15T02:31:16.208Z,1.70
2023-03-15T02:33:46.104Z,1.67
2023-03-15T02:36:18.321Z,1.65
2023-03-15T02:38:46.360Z,1.72
2023-03-15T02:41:16.493Z,1.79
2023-03-15T02:43:44.731Z,1.60
2023-03-15T02:46:14.621Z,1.57
2023-03-15T02:48:42.820Z,1.62
2023-03-15T02:51:18.425Z,1.49
2023-03-15T02:53:46.479Z,1.53
2023-03-15T02:56:15.177Z,1.62
2023-03-15T02:58:45.815Z,1.61
2023-03-15T03:01:15.299Z,1.42
2023-03-15T03:03:43.745Z,1.39
2023-03-15T03:06:13.074Z,1.58
2023-03-15T03:08:41.033Z,1.63
2023-03-15T03:11:08.976Z,1.45
2023-03-15T03:13:36.889Z,1.56
2023-03-15T03:16:04.854Z,1.54
2023-03-15T03:18:35.886Z,1.55
2023-03-15T03:21:04.894Z,1.35
2023-03-15T03:23:33.947Z,1.52
2023-03-15T03:26:03.143Z,1.52
2023-03-15T03:28:33.247Z,1.53
2023-03-15T03:31:01.285Z,1.58
2023-03-15T03:33:29.228Z,1.42
2023-03-15T03:36:04.098Z,1.50
2023-03-15T03:38:32.082Z,1.52
2023-03-15T03:40:59.955Z,1.48
2023-03-15T03:43:27.861Z,1.36
2023-03-15T03:45:55.811Z,1.33
2023-03-15T03:48:23.744Z,1.42
2023-03-15T03:50:51.693Z,1.50
2023-03-15T03:53:21.001Z,1.38
2023-03-15T03:55:48.955Z,1.50
2023-03-15T03:58:16.906Z,1.52
2023-03-15T04:00:44.807Z,1.56
2023-03-15T04:03:12.848Z,1.51
2023-03-15T04:05:41.990Z,1.55
2023-03-15T04:08:09.962Z,1.20
2023-03-15T04:10:39.258Z,1.28
2023-03-15T04:13:07.208Z,1.28
2023-03-15T04:15:35.127Z,1.33
2023-03-15T04:18:05.807Z,1.27
2023-03-15T04:20:34.674Z,1.37
2023-03-15T04:23:02.798Z,1.13
2023-03-15T04:25:31.127Z,1.21
2023-03-15T04:28:02.876Z,1.14
2023-03-15T04:30:31.015Z,1.27
2023-03-15T04:32:59.996Z,1.11
2023-03-15T04:35:28.035Z,1.16
2023-03-15T04:37:57.019Z,1.35
2023-03-15T04:40:29.860Z,1.02
2023-03-15T04:42:57.760Z,0.99
2023-03-15T04:45:28.444Z,1.28
2023-03-15T04:47:56.785Z,1.13
2023-03-15T04:50:25.557Z,1.05
2023-03-15T04:52:53.508Z,1.16
2023-03-15T04:55:21.448Z,1.28
2023-03-15T04:57:49.391Z,1.27
2023-03-15T05:00:18.035Z,1.43
2023-03-15T05:02:54.577Z,1.30
2023-03-15T05:05:23.534Z,1.24
2023-03-15T05:07:51.778Z,0.98
2023-03-15T05:10:19.932Z,1.19
2023-03-15T05:12:47.902Z,1.16
2023-03-15T05:15:15.862Z,1.14
2023-03-15T05:17:46.514Z,1.17
2023-03-15T05:20:16.729Z,1.18
2023-03-15T05:22:45.449Z,1.17
2023-03-15T05:25:13.935Z,1.18
2023-03-15T05:27:41.901Z,1.27
2023-03-15T05:30:11.321Z,1.13
2023-03-15T05:32:39.758Z,1.22
2023-03-15T05:35:09.944Z,1.16
2023-03-15T05:37:39.407Z,1.19
2023-03-15T05:40:09.343Z,1.01
2023-03-15T05:42:37.287Z,1.06
2023-03-15T05:45:05.873Z,0.96
2023-03-15T05:47:34.185Z,1.11
2023-03-15T05:50:02.136Z,0.99
2023-03-15T05:52:30.049Z,0.97
2023-03-15T05:54:59.351Z,1.09
2023-03-15T05:57:27.265Z,1.17
2023-03-15T05:59:55.226Z,1.13
2023-03-15T06:02:23.829Z,1.16
2023-03-15T06:04:51.753Z,1.24
2023-03-15T06:07:21.254Z,1.19
2023-03-15T06:09:49.151Z,1.06
2023-03-15T06:12:18.491Z,1.20
2023-03-15T06:14:46.471Z,1.16
2023-03-15T06:17:14.369Z,1.29
2023-03-15T06:19:42.379Z,1.30
2023-03-15T06:22:10.471Z,1.34
2023-03-15T06:24:38.389Z,1.16
2023-03-15T06:27:06.452Z,0.96
2023-03-15T06:29:35.818Z,1.17
2023-03-15T06:32:03.927Z,1.26
2023-03-15T06:34:31.919Z,1.31
2023-03-15T06:36:59.867Z,1.26
2023-03-15T06:39:27.808Z,1.36
2023-03-15T06:41:58.487Z,1.42
2023-03-15T06:44:26.523Z,1.40
2023-03-15T06:46:55.938Z,1.45
2023-03-15T06:49:23.903Z,1.51
2023-03-15T06:51:51.851Z,1.59
2023-03-15T06:54:19.756Z,1.58
2023-03-15T06:56:47.647Z,1.65
2023-03-15T06:59:15.571Z,1.55
2023-03-15T07:01:43.580Z,1.31
2023-03-15T07:04:12.911Z,1.39
2023-03-15T07:06:40.965Z,1.26
2023-03-15T07:09:09.145Z,1.33
2023-03-15T07:11:37.455Z,1.40
2023-03-15T07:14:05.903Z,1.36
2023-03-15T07:16:33.888Z,1.44
2023-03-15T07:19:02.522Z,1.33
2023-03-15T07:21:32.536Z,1.40
2023-03-15T07:24:00.624Z,1.42
2023-03-15T07:26:28.530Z,1.39
2023-03-15T07:28:56.452Z,1.38
2023-03-15T07:31:24.443Z,1.35
2023-03-15T07:33:52.796Z,1.27
2023-03-15T07:36:22.568Z,1.23
2023-03-15T07:38:51.913Z,1.23
2023-03-15T07:41:19.825Z,1.36
2023-03-15T07:43:47.729Z,1.28
2023-03-15T07:46:15.753Z,1.39
2023-03-15T07:48:43.723Z,1.36
2023-03-15T07:51:11.963Z,1.40
2023-03-15T07:53:39.984Z,1.56
2023-03-15T07:56:09.577Z,1.72
2023-03-15T07:58:37.943Z,1.83
2023-03-15T08:01:06.298Z,1.94
2023-03-15T08:03:34.222Z,2.04
2023-03-15T08:06:02.448Z,2.06
2023-03-15T08:08:30.391Z,2.05
2023-03-15T08:10:59.406Z,1.98
2023-03-15T08:13:28.721Z,1.96
2023-03-15T08:15:56.947Z,1.97
2023-03-15T08:18:24.946Z,1.89
2023-03-15T08:20:53.095Z,1.66
2023-03-15T08:23:22.005Z,1.66
2023-03-15T08:25:50.249Z,1.74
2023-03-15T08:28:18.180Z,1.82
2023-03-15T08:30:47.590Z,1.89
2023-03-15T08:33:15.790Z,2.11
2023-03-15T08:35:43.888Z,2.34
2023-03-15T08:38:11.974Z,2.50
2023-03-15T08:40:40.840Z,2.62
2023-03-15T08:43:09.465Z,2.76
2023-03-15T08:45:56.773Z,2.99
2023-03-15T08:48:26.442Z,3.18
2023-03-15T08:50:54.467Z,3.39
2023-03-15T08:53:22.360Z,3.38
2023-03-15T08:55:50.620Z,3.45
2023-03-15T08:58:18.569Z,3.22
2023-03-15T09:00:47.918Z,2.88
2023-03-15T09:03:16.812Z,2.72
2023-03-15T09:05:46.887Z,2.71
2023-03-15T09:08:17.005Z,2.61
2023-03-15T09:10:45.122Z,2.71
2023-03-15T09:13:13.056Z,2.89
2023-03-15T09:15:40.978Z,2.93
2023-03-15T09:18:08.892Z,2.88
2023-03-15T09:20:36.874Z,3.00
2023-03-15T09:23:06.191Z,3.23
2023-03-15T09:25:34.097Z,3.34
2023-03-15T09:28:02.046Z,3.46
2023-03-15T09:30:30.083Z,3.64
2023-03-15T09:32:58.177Z,3.82
2023-03-15T09:35:26.213Z,3.94
2023-03-15T09:37:54.128Z,4.07
2023-03-15T09:40:26.098Z,4.39
2023-03-15T09:43:03.429Z,4.72
2023-03-15T09:45:41.808Z,4.61
2023-03-15T09:48:11.540Z,4.59
2023-03-15T09:50:43.311Z,4.09
2023-03-15T09:53:14.287Z,3.79
2023-03-15T09:55:43.904Z,4.04
2023-03-15T09:58:13.683Z,4.08
2023-03-15T10:00:45.313Z,4.02
2023-03-15T10:03:18.158Z,4.30
2023-03-15T10:05:47.953Z,4.40
2023-03-15T10:08:18.090Z,4.58
2023-03-15T10:10:51.876Z,4.46
2023-03-15T10:13:43.532Z,4.66
2023-03-15T10:16:21.774Z,4.21
2023-03-15T10:19:02.909Z,4.40
2023-03-15T10:21:39.203Z,4.66
2023-03-15T10:24:16.413Z,4.74
2023-03-15T10:29:17.033Z,4.91
2023-03-15T10:31:47.701Z,5.04
2023-03-15T10:34:16.915Z,5.10
2023-03-15T10:36:50.314Z,5.13
2023-03-15T10:39:19.371Z,4.82
2023-03-15T10:41:50.738Z,4.91
2023-03-15T10:44:20.726Z,4.87
2023-03-15T10:47:07.203Z,4.61
2023-03-15T10:49:41.920Z,4.80
2023-03-15T10:52:28.457Z,5.00
2023-03-15T10:55:02.475Z,5.19
2023-03-15T10:57:36.280Z,5.48
2023-03-15T11:00:09.478Z,5.15
2023-03-15T11:02:37.573Z,5.58
2023-03-15T11:05:17.232Z,5.63
2023-03-15T11:07:55.861Z,5.86
2023-03-15T11:10:25.320Z,5.83
2023-03-15T11:13:10.490Z,5.53
2023-03-15T11:15:39.000Z,6.00
2023-03-15T11:18:09.100Z,5.70
2023-03-15T11:20:40.930Z,5.77
2023-03-15T11:23:16.043Z,5.73
2023-03-15T11:25:43.996Z,5.67
2023-03-15T11:28:18.680Z,5.79
2023-03-15T11:30:48.605Z,5.95
2023-03-15T11:33:28.516Z,5.56
2023-03-15T11:35:57.660Z,5.53
2023-03-15T11:38:30.266Z,5.60
2023-03-15T11:40:58.699Z,5.80
2023-03-15T11:43:32.591Z,5.25
2023-03-15T11:46:02.333Z,5.75
2023-03-15T11:48:32.647Z,5.88
2023-03-15T11:51:01.127Z,5.44
2023-03-15T11:53:33.197Z,5.44
2023-03-15T11:56:21.876Z,5.16
2023-03-15T11:59:07.047Z,5.06
2023-03-15T12:01:36.287Z,5.28
2023-03-15T12:04:49.916Z,4.87
2023-03-15T12:07:40.019Z,4.92
2023-03-15T12:10:25.880Z,4.66
2023-03-15T12:12:59.313Z,4.34
2023-03-15T12:15:48.736Z,4.56
2023-03-15T12:18:34.627Z,4.85
2023-03-15T12:21:14.494Z,4.93
2023-03-15T12:23:48.590Z,5.46
2023-03-15T12:26:28.044Z,5.80
2023-03-15T12:29:07.223Z,5.98
2023-03-15T12:31:53.645Z,6.10
2023-03-15T12:34:28.730Z,6.27
2023-03-15T12:36:59.118Z,6.40
2023-03-15T12:39:39.879Z,6.42
2023-03-15T12:42:23.026Z,7.01
2023-03-15T12:44:51.011Z,6.91
2023-03-15T12:47:20.337Z,6.80
2023-03-15T12:49:48.332Z,7.05
2023-03-15T12:52:41.731Z,7.08
2023-03-15T12:55:16.936Z,7.40
2023-03-15T12:57:49.501Z,7.70
2023-03-15T13:00:19.316Z,7.59
2023-03-15T13:02:52.089Z,7.40
2023-03-15T13:05:24.859Z,7.35
2023-03-15T13:07:58.199Z,7.50
2023-03-15T13:10:40.712Z,7.86
2023-03-15T13:13:28.923Z,8.00
2023-03-15T13:16:15.618Z,8.30
2023-03-15T13:18:49.849Z,8.45
2023-03-15T13:21:21.577Z,8.47
2023-03-15T13:23:52.166Z,8.67
2023-03-15T13:26:43.925Z,7.52
2023-03-15T13:29:17.511Z,7.61
2023-03-15T13:31:46.443Z,7.38
2023-03-15T13:34:17.976Z,6.96
2023-03-15T13:36:47.534Z,6.98
2023-03-15T13:39:23.274Z,6.86
2023-03-15T13:41:51.779Z,7.40
2023-03-15T13:44:22.226Z,7.99
2023-03-15T13:46:52.521Z,8.50
2023-03-15T13:49:22.715Z,8.60
2023-03-15T13:51:51.951Z,8.11
2023-03-15T13:54:22.302Z,8.05
2023-03-15T13:56:58.145Z,8.03
2023-03-15T13:59:30.281Z,7.04
2023-03-15T14:01:58.958Z,7.72
2023-03-15T14:04:29.236Z,7.32
2023-03-15T14:07:22.122Z,7.47
2023-03-15T14:09:50.021Z,8.49
2023-03-15T14:12:22.852Z,8.49
2023-03-15T14:14:52.307Z,8.19
2023-03-15T14:17:23.937Z,7.91
2023-03-15T14:19:56.734Z,7.59
2023-03-15T14:22:24.770Z,7.51
2023-03-15T14:24:54.040Z,7.76
2023-03-15T14:27:23.458Z,7.59
2023-03-15T14:29:53.564Z,7.60
2023-03-15T14:32:29.151Z,7.89
2023-03-15T14:35:03.701Z,7.97
2023-03-15T14:37:37.148Z,7.63
2023-03-15T14:40:24.001Z,7.23
2023-03-15T14:42:52.622Z,7.24
2023-03-15T14:45:22.246Z,7.42
2023-03-15T14:47:58.807Z,7.41
2023-03-15T14:50:30.882Z,8.16
2023-03-15T14:52:59.788Z,8.54
2023-03-15T14:55:30.977Z,8.17
2023-03-15T14:57:58.954Z,8.36
2023-03-15T15:00:27.245Z,7.56
2023-03-15T15:02:56.919Z,7.52
2023-03-15T15:05:26.547Z,7.45
2023-03-15T15:08:01.449Z,8.21
2023-03-15T15:10:29.776Z,7.46
2023-03-15T15:13:05.928Z,7.74
2023-03-15T15:15:47.417Z,7.51
2023-03-15T15:18:22.085Z,7.75
2023-03-15T15:20:51.550Z,7.78
2023-03-15T15:23:22.527Z,7.69
2023-03-15T15:25:52.082Z,8.14
2023-03-15T15:28:33.154Z,8.39
2023-03-15T15:31:02.409Z,8.78
2023-03-15T15:33:30.391Z,8.80
2023-03-15T15:35:58.937Z,8.12
2023-03-15T15:38:33.072Z,8.17
2023-03-15T15:41:01.144Z,7.33
2023-03-15T15:43:30.026Z,7.15
2023-03-15T15:45:58.839Z,7.36
2023-03-15T15:48:26.812Z,6.86
2023-03-15T15:51:06.974Z,6.53
2023-03-15T15:53:36.365Z,7.22
2023-03-15T15:56:04.335Z,8.77
2023-03-15T15:58:32.264Z,8.79
2023-03-15T16:01:00.214Z,9.34
2023-03-15T16:03:28.363Z,9.61
2023-03-15T16:05:56.276Z,9.25
2023-03-15T16:08:25.943Z,9.09
2023-03-15T16:10:55.257Z,9.13
2023-03-15T16:13:23.454Z,8.56
2023-03-15T16:15:51.454Z,8.38
2023-03-15T16:18:19.486Z,7.01
2023-03-15T16:20:48.744Z,7.19
2023-03-15T16:23:20.964Z,6.89
2023-03-15T16:25:50.690Z,6.95
2023-03-15T16:28:20.260Z,7.45
2023-03-15T16:30:48.234Z,7.35
2023-03-15T16:33:17.521Z,6.62
2023-03-15T16:35:45.928Z,7.00
2023-03-15T16:38:16.417Z,6.31
2023-03-15T16:40:46.056Z,6.27
2023-03-15T16:43:14.656Z,6.40
2023-03-15T16:45:43.927Z,6.29
2023-03-15T16:48:12.968Z,6.45
2023-03-15T16:50:41.269Z,6.23
2023-03-15T16:53:11.224Z,5.97
2023-03-15T16:55:39.684Z,6.00
2023-03-15T16:58:38.596Z,6.36
2023-03-15T17:01:09.785Z,6.24
2023-03-15T17:03:37.753Z,6.31
2023-03-15T17:06:05.980Z,5.96
2023-03-15T17:08:34.084Z,5.98
2023-03-15T17:11:02.027Z,5.88
2023-03-15T17:13:31.905Z,5.58
2023-03-15T17:16:00.259Z,5.38
2023-03-15T17:18:30.780Z,5.62
2023-03-15T17:20:59.159Z,5.60
2023-03-15T17:23:27.045Z,5.40
2023-03-15T17:25:54.961Z,5.34
2023-03-15T17:28:23.024Z,5.25
2023-03-15T17:30:55.220Z,5.11
2023-03-15T17:33:27.440Z,5.08
2023-03-15T17:35:58.126Z,5.17
2023-03-15T17:38:30.816Z,5.16
2023-03-15T17:40:58.816Z,5.08
2023-03-15T17:43:26.779Z,5.10
2023-03-15T17:45:54.735Z,4.88
2023-03-15T17:48:22.640Z,4.79
2023-03-15T17:50:50.667Z,4.78
2023-03-15T17:53:21.252Z,4.67
2023-03-15T17:55:49.446Z,4.53
2023-03-15T17:58:20.218Z,4.63
2023-03-15T18:00:49.069Z,4.68
2023-03-15T18:03:17.570Z,4.46
2023-03-15T18:05:46.242Z,4.27
2023-03-15T18:08:16.929Z,4.16
2023-03-15T18:10:47.244Z,4.01
2023-03-15T18:13:17.647Z,3.98
2023-03-15T18:15:45.989Z,4.10
2023-03-15T18:18:13.903Z,4.21
2023-03-15T18:20:42.229Z,4.00
2023-03-15T18:23:13.059Z,3.97
2023-03-15T18:25:41.176Z,3.90
2023-03-15T18:28:10.873Z,4.10
2023-03-15T18:30:38.846Z,3.82
2023-03-15T18:33:06.971Z,3.55
2023-03-15T18:35:36.677Z,3.54
2023-03-15T18:38:05.517Z,3.54
2023-03-15T18:40:36.843Z,3.59
2023-03-15T18:43:05.633Z,3.52
2023-03-15T18:45:36.663Z,3.55
2023-03-15T18:48:05.077Z,3.45
2023-03-15T18:50:33.575Z,3.66
2023-03-15T18:53:01.793Z,3.50
2023-03-15T18:55:29.755Z,3.64
2023-03-15T18:57:57.665Z,3.83
2023-03-15T19:00:28.302Z,3.72
2023-03-15T19:02:59.499Z,3.63
2023-03-15T19:05:28.025Z,3.60
2023-03-15T19:07:55.904Z,3.55
2023-03-15T19:10:25.045Z,3.65
2023-03-15T19:12:53.289Z,3.42
2023-03-15T19:15:22.924Z,3.44
2023-03-15T19:17:52.703Z,3.39
2023-03-15T19:20:22.836Z,3.48
2023-03-15T19:22:51.302Z,3.40
2023-03-15T19:25:19.642Z,3.40
2023-03-15T19:27:47.759Z,3.40
2023-03-15T19:30:20.765Z,3.48
2023-03-15T19:32:50.290Z,3.44
2023-03-15T19:35:19.383Z,3.36
2023-03-15T19:37:49.365Z,2.95
2023-03-15T19:40:18.706Z,2.81
2023-03-15T19:42:46.792Z,2.82
2023-03-15T19:45:18.435Z,2.84
2023-03-15T19:47:47.073Z,2.94
2023-03-15T19:50:15.767Z,2.87
2023-03-15T19:52:46.924Z,2.92
2023-03-15T19:55:17.599Z,2.82
2023-03-15T19:57:45.629Z,2.72
2023-03-15T20:00:15.990Z,2.66
2023-03-15T20:02:44.015Z,2.95
2023-03-15T20:05:13.412Z,3.12
2023-03-15T20:07:42.477Z,3.05
2023-03-15T20:10:11.926Z,2.81
2023-03-15T20:12:42.741Z,2.50
2023-03-15T20:15:12.226Z,2.65
2023-03-15T20:17:41.021Z,2.79
2023-03-15T20:20:13.153Z,2.83
2023-03-15T20:22:42.150Z,2.89
2023-03-15T20:25:10.930Z,2.92
2023-03-15T20:27:39.028Z,2.93
2023-03-15T20:30:10.400Z,2.99
2023-03-15T20:32:38.372Z,3.07
2023-03-15T20:35:09.252Z,2.83
2023-03-15T20:37:40.290Z,2.92
2023-03-15T20:40:10.835Z,2.70
2023-03-15T20:42:38.845Z,2.70
2023-03-15T20:45:10.045Z,2.78
2023-03-15T20:47:38.841Z,2.75
2023-03-15T20:50:07.195Z,2.75
2023-03-15T20:52:35.187Z,2.71
2023-03-15T20:55:03.644Z,2.65
2023-03-15T20:57:31.591Z,2.65
2023-03-15T20:59:59.986Z,2.74
2023-03-15T21:02:29.275Z,2.85
2023-03-15T21:04:57.178Z,2.76
2023-03-15T21:07:25.123Z,2.71
2023-03-15T21:09:53.017Z,2.72
2023-03-15T21:12:21.369Z,2.75
2023-03-15T21:14:49.272Z,2.74
2023-03-15T21:17:17.210Z,2.67
2023-03-15T21:19:46.521Z,2.57
2023-03-15T21:22:14.503Z,2.46
2023-03-15T21:24:54.775Z,2.53
2023-03-15T21:27:26.247Z,2.39
2023-03-15T21:29:54.597Z,2.47
2023-03-15T21:32:22.676Z,2.36
2023-03-15T21:34:52.554Z,2.41
2023-03-15T21:37:20.684Z,2.63
2023-03-15T21:39:48.561Z,2.57
2023-03-15T21:42:16.563Z,2.64
2023-03-15T21:44:44.477Z,2.57
2023-03-15T21:47:14.128Z,2.51
2023-03-15T21:49:44.765Z,2.53
2023-03-15T21:52:16.252Z,2.51
2023-03-15T21:54:44.954Z,2.60
2023-03-15T21:57:13.729Z,2.49
2023-03-15T21:59:41.674Z,2.37
2023-03-15T22:02:14.228Z,2.07
2023-03-15T22:04:42.814Z,1.47
2023-03-15T22:07:11.785Z,1.59
2023-03-15T22:09:41.903Z,1.79
2023-03-15T22:12:10.511Z,1.82
2023-03-15T22:14:38.499Z,1.71
2023-03-15T22:17:06.559Z,1.78
2023-03-15T22:19:34.687Z,1.88
2023-03-15T22:22:02.631Z,2.12
2023-03-15T22:24:34.063Z,2.18
2023-03-15T22:27:03.636Z,2.04
2023-03-15T22:29:31.536Z,2.00
2023-03-15T22:31:59.473Z,1.84
2023-03-15T22:34:27.620Z,1.78
2023-03-15T22:36:55.589Z,1.58
2023-03-15T22:39:23.487Z,1.62
2023-03-15T22:41:51.408Z,1.70
2023-03-15T22:44:20.778Z,1.49
2023-03-15T22:46:48.801Z,1.35
2023-03-15T22:49:17.552Z,1.20
2023-03-15T22:51:45.477Z,0.93
2023-03-15T22:54:13.429Z,0.68
2023-03-15T22:56:41.334Z,0.51
2023-03-15T22:59:09.254Z,0.56
2023-03-15T23:01:38.585Z,0.39
2023-03-15T23:04:06.614Z,0.13
2023-03-15T23:06:34.530Z,-0.17
2023-03-15T23:09:03.936Z,-0.16
2023-03-15T23:11:33.464Z,-0.03
2023-03-15T23:14:01.404Z,0.23
2023-03-15T23:16:29.360Z,0.13
2023-03-15T23:18:58.740Z,0.13
2023-03-15T23:21:27.167Z,0.56
2023-03-15T23:23:55.074Z,0.88
2023-03-15T23:26:25.535Z,0.51
2023-03-15T23:28:53.781Z,0.25
2023-03-15T23:31:22.376Z,0.24
2023-03-15T23:33:50.289Z,-0.14
2023-03-15T23:36:19.559Z,-0.37
2023-03-15T23:38:47.477Z,-0.21
2023-03-15T23:41:15.389Z,-0.14
2023-03-15T23:43:43.443Z,0.38
2023-03-15T23:46:14.489Z,0.67
2023-03-15T23:48:42.601Z,0.81
2023-03-15T23:51:12.634Z,0.90
2023-03-15T23:53:41.980Z,0.90
2023-03-15T23:56:10.021Z,0.97
2023-03-15T23:58:38.728Z,1.19
